createdAt,value
2023-02-02T00:02:00.170Z,102124.13
2023-02-02T00:04:29.366Z,102117.06
2023-02-02T00:06:59.272Z,102125.09
2023-02-02T00:09:30.903Z,102131.38
2023-02-02T00:11:58.835Z,102117.13
2023-02-02T00:14:25.509Z,102122.38
2023-02-02T00:16:56.400Z,102119.69
2023-02-02T00:19:26.469Z,102125.84
2023-02-02T00:21:54.308Z,102123.34
2023-02-02T00:24:21.258Z,102123.63
2023-02-02T00:26:50.728Z,102116.56
2023-02-02T00:29:21.082Z,102119.47
2023-02-02T00:31:48.041Z,102119.56
2023-02-02T00:34:15.350Z,102116.16
2023-02-02T00:36:42.777Z,102116.28
2023-02-02T00:39:10.864Z,102119.84
2023-02-02T00:41:37.464Z,102114.59
2023-02-02T00:44:23.186Z,102108.47
2023-02-02T00:46:49.807Z,102112.84
2023-02-02T00:49:16.427Z,102111.88
2023-02-02T00:51:42.999Z,102119.94
2023-02-02T00:54:09.670Z,102110.09
2023-02-02T00:56:36.192Z,102104.78
2023-02-02T00:59:02.780Z,102108.00
2023-02-02T01:01:29.462Z,102110.53
2023-02-02T01:03:56.061Z,102106.03
2023-02-02T01:06:23.195Z,102112.28
2023-02-02T01:08:49.843Z,102100.03
2023-02-02T01:11:17.191Z,102104.53
2023-02-02T01:13:44.145Z,102109.97
2023-02-02T01:16:11.294Z,102101.19
2023-02-02T01:18:38.039Z,102111.81
2023-02-02T01:21:07.095Z,102110.00
2023-02-02T01:23:34.724Z,102112.81
2023-02-02T01:26:02.629Z,102113.78
2023-02-02T01:28:29.628Z,102104.19
2023-02-02T01:30:56.685Z,102106.94
2023-02-02T01:33:24.285Z,102107.84
2023-02-02T01:35:53.263Z,102108.00
2023-02-02T01:38:20.725Z,102099.28
2023-02-02T01:40:49.564Z,102095.03
2023-02-02T01:43:23.254Z,102099.50
2023-02-02T01:45:51.191Z,102099.50
2023-02-02T01:48:20.325Z,102096.75
2023-02-02T01:50:48.739Z,102093.16
2023-02-02T01:53:15.281Z,102108.94
2023-02-02T01:55:42.328Z,102105.47
2023-02-02T01:58:17.481Z,102108.16
2023-02-02T02:00:46.627Z,102099.38
2023-02-02T02:03:16.253Z,102099.38
2023-02-02T02:05:49.794Z,102092.34
2023-02-02T02:08:30.081Z,102098.59
2023-02-02T02:10:57.225Z,102093.41
2023-02-02T02:13:46.192Z,102091.69
2023-02-02T02:16:33.388Z,102085.66
2023-02-02T02:19:20.475Z,102088.34
2023-02-02T02:22:25.796Z,102085.63
2023-02-02T02:25:10.951Z,102092.78
2023-02-02T02:28:12.670Z,102086.72
2023-02-02T02:31:00.912Z,102083.22
2023-02-02T02:33:29.748Z,102089.53
2023-02-02T02:36:20.223Z,102088.69
2023-02-02T02:38:59.010Z,102088.78
2023-02-02T02:41:30.200Z,102085.31
2023-02-02T02:44:00.713Z,102096.09
2023-02-02T02:46:27.990Z,102092.53
2023-02-02T02:48:58.317Z,102097.84
2023-02-02T02:51:43.867Z,102085.50
2023-02-02T02:54:16.857Z,102095.41
2023-02-02T02:57:14.229Z,102089.31
2023-02-02T03:00:27.408Z,102097.31
2023-02-02T03:03:04.988Z,102087.47
2023-02-02T03:05:52.580Z,102088.34
2023-02-02T03:08:27.712Z,102083.16
2023-02-02T03:10:56.033Z,102082.16
2023-02-02T03:13:22.672Z,102082.16
2023-02-02T03:15:49.222Z,102084.88
2023-02-02T03:18:18.017Z,102080.50
2023-02-02T03:20:45.759Z,102092.97
2023-02-02T03:23:12.389Z,102093.91
2023-02-02T03:25:38.898Z,102101.03
2023-02-02T03:28:06.568Z,102100.28
2023-02-02T03:30:33.819Z,102096.81
2023-02-02T03:33:00.890Z,102104.84
2023-02-02T03:35:27.410Z,102101.41
2023-02-02T03:37:53.992Z,102100.59
2023-02-02T03:40:20.580Z,102105.03
2023-02-02T03:42:47.121Z,102106.84
2023-02-02T03:45:13.852Z,102106.03
2023-02-02T03:47:40.414Z,102098.06
2023-02-02T03:50:09.768Z,102092.66
2023-02-02T03:52:36.456Z,102094.41
2023-02-02T03:55:03.170Z,102100.59
2023-02-02T03:57:29.769Z,102111.25
2023-02-02T03:59:56.327Z,102113.06
2023-02-02T04:02:23.334Z,102114.91
2023-02-02T04:04:49.864Z,102114.06
2023-02-02T04:07:16.410Z,102100.88
2023-02-02T04:09:42.936Z,102115.94
2023-02-02T04:12:09.421Z,102114.16
2023-02-02T04:14:35.956Z,102112.38
2023-02-02T04:17:02.491Z,102120.31
2023-02-02T04:19:29.137Z,102122.13
2023-02-02T04:21:55.712Z,102128.28
2023-02-02T04:24:22.215Z,102132.66
2023-02-02T04:26:48.777Z,102128.28
2023-02-02T04:29:15.407Z,102127.34
2023-02-02T04:31:42.028Z,102126.38
2023-02-02T04:34:08.702Z,102128.19
2023-02-02T04:36:35.277Z,102133.53
2023-02-02T04:39:01.874Z,102130.94
2023-02-02T04:41:28.568Z,102127.44
2023-02-02T04:43:55.125Z,102135.47
2023-02-02T04:46:21.691Z,102144.41
2023-02-02T04:48:49.678Z,102147.97
2023-02-02T04:51:16.730Z,102141.84
2023-02-02T04:53:43.238Z,102136.53
2023-02-02T04:56:13.600Z,102136.63
2023-02-02T04:58:40.729Z,102135.81
2023-02-02T05:01:18.955Z,102137.50
2023-02-02T05:03:46.523Z,102136.53
2023-02-02T05:06:15.797Z,102140.94
2023-02-02T05:08:45.643Z,102143.59
2023-02-02T05:11:16.006Z,102145.31
2023-02-02T05:13:50.508Z,102139.94
2023-02-02T05:16:17.747Z,102140.78
2023-02-02T05:18:51.142Z,102146.13
2023-02-02T05:21:17.805Z,102143.53
2023-02-02T05:23:44.454Z,102141.75
2023-02-02T05:26:20.213Z,102147.06
2023-02-02T05:28:46.871Z,102152.38
2023-02-02T05:31:13.489Z,102151.56
2023-02-02T05:33:40.109Z,102152.44
2023-02-02T05:36:07.450Z,102151.59
2023-02-02T05:38:34.501Z,102151.56
2023-02-02T05:41:01.549Z,102157.69
2023-02-02T05:43:29.615Z,102161.97
2023-02-02T05:45:56.382Z,102166.34
2023-02-02T05:48:23.061Z,102169.94
2023-02-02T05:51:15.632Z,102165.53
2023-02-02T05:53:44.304Z,102157.69
2023-02-02T05:56:11.552Z,102160.41
2023-02-02T05:58:38.170Z,102160.41
2023-02-02T06:01:05.094Z,102154.41
2023-02-02T06:03:31.861Z,102152.91
2023-02-02T06:05:58.586Z,102143.47
2023-02-02T06:08:25.151Z,102148.03
2023-02-02T06:10:51.672Z,102152.53
2023-02-02T06:13:18.231Z,102150.69
2023-02-02T06:15:44.815Z,102147.13
2023-02-02T06:18:11.385Z,102151.47
2023-02-02T06:20:38.309Z,102155.84
2023-02-02T06:23:05.378Z,102156.78
2023-02-02T06:25:32.327Z,102163.00
2023-02-02T06:27:59.859Z,102154.94
2023-02-02T06:30:27.429Z,102157.41
2023-02-02T06:32:54.270Z,102158.06
2023-02-02T06:35:20.857Z,102166.75
2023-02-02T06:37:47.423Z,102170.22
2023-02-02T06:40:14.000Z,102171.97
2023-02-02T06:42:41.017Z,102169.28
2023-02-02T06:45:07.989Z,102168.38
2023-02-02T06:47:34.541Z,102163.28
2023-02-02T06:50:01.104Z,102164.41
2023-02-02T06:52:27.687Z,102174.34
2023-02-02T06:54:54.295Z,102178.06
2023-02-02T06:57:20.904Z,102186.97
2023-02-02T06:59:47.528Z,102193.91
2023-02-02T07:02:14.222Z,102192.97
2023-02-02T07:04:40.951Z,102194.75
2023-02-02T07:07:07.520Z,102199.13
2023-02-02T07:09:34.618Z,102201.66
2023-02-02T07:12:01.423Z,102205.94
2023-02-02T07:14:27.991Z,102209.25
2023-02-02T07:16:54.526Z,102209.94
2023-02-02T07:19:21.076Z,102211.50
2023-02-02T07:21:47.696Z,102210.44
2023-02-02T07:24:14.260Z,102206.75
2023-02-02T07:26:40.946Z,102217.06
2023-02-02T07:29:07.538Z,102228.38
2023-02-02T07:31:36.321Z,102228.19
2023-02-02T07:34:03.433Z,102236.91
2023-02-02T07:36:30.113Z,102243.94
2023-02-02T07:39:02.076Z,102243.03
2023-02-02T07:41:28.648Z,102240.34
2023-02-02T07:43:55.181Z,102242.94
2023-02-02T07:46:21.774Z,102249.00
2023-02-02T07:48:48.737Z,102253.25
2023-02-02T07:51:17.441Z,102251.44
2023-02-02T07:53:48.658Z,102265.75
2023-02-02T07:56:20.461Z,102266.69
2023-02-02T07:58:47.327Z,102256.81
2023-02-02T08:01:15.457Z,102263.69
2023-02-02T08:03:45.323Z,102253.81
2023-02-02T08:06:17.516Z,102265.22
2023-02-02T08:08:44.535Z,102265.91
2023-02-02T08:11:12.680Z,102264.97
2023-02-02T08:13:40.447Z,102269.03
2023-02-02T08:16:07.497Z,102261.53
2023-02-02T08:18:35.276Z,102263.69
2023-02-02T08:21:02.679Z,102266.84
2023-02-02T08:23:29.759Z,102266.50
2023-02-02T08:26:09.002Z,102257.25
2023-02-02T08:28:36.532Z,102262.25
2023-02-02T08:31:17.037Z,102267.31
2023-02-02T08:33:43.660Z,102275.81
2023-02-02T08:36:13.234Z,102263.13
2023-02-02T08:38:40.392Z,102265.38
2023-02-02T08:41:12.711Z,102266.84
2023-02-02T08:43:40.171Z,102263.81
2023-02-02T08:46:08.957Z,102268.84
2023-02-02T08:48:36.135Z,102268.41
2023-02-02T08:51:03.163Z,102276.75
2023-02-02T08:53:30.011Z,102270.94
2023-02-02T08:56:14.527Z,102278.56
2023-02-02T08:58:47.891Z,102284.50
2023-02-02T09:01:23.427Z,102282.44
2023-02-02T09:03:54.358Z,102288.31
2023-02-02T09:06:21.512Z,102281.72
2023-02-02T09:08:48.316Z,102285.72
2023-02-02T09:11:17.317Z,102292.50
2023-02-02T09:13:48.937Z,102290.25
2023-02-02T09:16:17.764Z,102294.19
2023-02-02T09:18:45.235Z,102286.56
2023-02-02T09:21:13.754Z,102293.28
2023-02-02T09:23:42.095Z,102286.75
2023-02-02T09:26:20.691Z,102290.72
2023-02-02T09:28:52.970Z,102296.50
2023-02-02T09:31:19.661Z,102289.84
2023-02-02T09:33:46.398Z,102286.81
2023-02-02T09:36:23.959Z,102289.06
2023-02-02T09:38:51.409Z,102297.50
2023-02-02T09:41:36.418Z,102305.06
2023-02-02T09:44:27.896Z,102308.19
2023-02-02T09:47:18.160Z,102311.19
2023-02-02T09:49:52.421Z,102314.19
2023-02-02T09:52:23.328Z,102306.53
2023-02-02T09:54:52.732Z,102306.16
2023-02-02T09:57:23.516Z,102307.50
2023-02-02T09:59:52.017Z,102310.72
2023-02-02T10:02:23.122Z,102320.09
2023-02-02T10:04:55.144Z,102321.47
2023-02-02T10:07:30.508Z,102320.19
2023-02-02T10:10:04.478Z,102332.94
2023-02-02T10:12:47.368Z,102333.22
2023-02-02T10:15:24.461Z,102331.97
2023-02-02T10:18:12.609Z,102325.34
2023-02-02T10:20:46.320Z,102328.47
2023-02-02T10:23:22.920Z,102335.22
2023-02-02T10:25:56.395Z,102330.31
2023-02-02T10:28:50.193Z,102328.09
2023-02-02T10:31:35.468Z,102321.19
2023-02-02T10:34:08.325Z,102315.41
2023-02-02T10:37:13.987Z,102308.50
2023-02-02T10:40:05.479Z,102312.41
2023-02-02T10:42:34.927Z,102307.56
2023-02-02T10:45:13.355Z,102305.09
2023-02-02T10:47:40.183Z,102310.03
2023-02-02T10:50:12.551Z,102304.25
2023-02-02T10:52:42.491Z,102298.50
2023-02-02T10:55:33.402Z,102303.53
2023-02-02T10:58:08.986Z,102305.94
2023-02-02T11:00:42.290Z,102305.66
2023-02-02T11:03:10.746Z,102296.53
2023-02-02T11:05:56.264Z,102299.84
2023-02-02T20:35:39.695Z,102407.59
2023-02-02T20:38:37.069Z,102420.06
2023-02-02T20:41:05.825Z,102415.84
2023-02-02T20:43:32.462Z,102413.44
2023-02-02T20:45:59.190Z,102423.44
2023-02-02T20:48:27.671Z,102431.56
2023-02-02T20:50:54.282Z,102430.06
2023-02-02T20:53:21.223Z,102433.75
2023-02-02T20:55:47.888Z,102430.22
2023-02-02T20:58:14.675Z,102440.06
2023-02-02T21:00:41.313Z,102432.47
2023-02-02T21:03:07.987Z,102442.63
2023-02-02T21:05:34.759Z,102440.31
2023-02-02T21:08:01.373Z,102440.75
2023-02-02T21:10:30.329Z,102440.47
2023-02-02T21:12:56.898Z,102438.25
2023-02-02T21:15:25.577Z,102437.69
2023-02-02T21:17:52.845Z,102439.66
2023-02-02T21:20:19.780Z,102444.31
2023-02-02T21:22:46.473Z,102442.72
2023-02-02T21:25:13.310Z,102439.34
2023-02-02T21:27:44.533Z,102447.41
2023-02-02T21:30:12.507Z,102450.13
2023-02-02T21:32:39.320Z,102445.78
2023-02-02T21:35:07.864Z,102444.06
2023-02-02T21:37:36.612Z,102450.34
2023-02-02T21:40:12.614Z,102448.59
2023-02-02T21:42:39.290Z,102447.72
2023-02-02T21:45:21.067Z,102444.16
2023-02-02T21:47:52.262Z,102452.06
2023-02-02T21:50:22.162Z,102447.56
2023-02-02T21:52:48.907Z,102444.78
2023-02-02T21:55:33.396Z,102450.06
2023-02-02T21:58:01.762Z,102454.47
2023-02-02T22:00:31.051Z,102449.13
2023-02-02T22:02:59.141Z,102451.81
2023-02-02T22:05:38.150Z,102462.47
2023-02-02T22:08:18.800Z,102457.94
2023-02-02T22:10:45.560Z,102458.88
2023-02-02T22:13:21.357Z,102465.13
2023-02-02T22:15:51.218Z,102461.63
2023-02-02T22:18:20.701Z,102461.75
2023-02-02T22:20:52.120Z,102463.53
2023-02-02T22:23:23.385Z,102467.09
2023-02-02T22:25:57.640Z,102459.09
2023-02-02T22:28:28.504Z,102455.44
2023-02-02T22:30:56.607Z,102456.31
2023-02-02T22:33:24.333Z,102455.50
2023-02-02T22:36:01.583Z,102453.66
2023-02-02T22:38:29.682Z,102447.47
2023-02-02T22:40:59.059Z,102450.16
2023-02-02T22:43:26.123Z,102454.63
2023-02-02T22:45:52.700Z,102448.38
2023-02-02T22:48:19.361Z,102454.72
2023-02-02T22:50:47.322Z,102461.84
2023-02-02T22:53:15.594Z,102466.31
2023-02-02T22:55:43.441Z,102469.13
2023-02-02T22:58:10.192Z,102472.72
2023-02-02T23:00:37.864Z,102466.59
2023-02-02T23:03:04.505Z,102462.19
2023-02-02T23:05:31.199Z,102462.19
2023-02-02T23:07:57.855Z,102470.19
2023-02-02T23:10:31.376Z,102475.50
2023-02-02T23:12:59.107Z,102470.28
2023-02-02T23:15:33.080Z,102475.69
2023-02-02T23:17:59.916Z,102482.91
2023-02-02T23:20:27.638Z,102481.13
2023-02-02T23:22:54.324Z,102481.13
2023-02-02T23:25:22.345Z,102481.22
2023-02-02T23:27:49.221Z,102490.06
2023-02-02T23:30:16.524Z,102498.06
2023-02-02T23:32:43.374Z,102495.34
2023-02-02T23:35:11.005Z,102496.16
2023-02-02T23:37:44.104Z,102500.50
2023-02-02T23:40:11.602Z,102499.66
2023-02-02T23:42:38.265Z,102503.19
2023-02-02T23:45:07.744Z,102504.03
2023-02-02T23:47:35.181Z,102497.84
2023-02-02T23:50:06.327Z,102486.38
2023-02-02T23:52:42.001Z,102489.13
2023-02-02T23:55:09.693Z,102492.69
2023-02-02T23:57:39.422Z,102490.94
